sensor_id;sensor_type;location;lat;lon;timestamp;P1;durP1;ratioP1;P2;durP2;ratioP2
57085;SDS011;42964;42.910;23.792;2023-12-07T00:00:37;95.55;;;43.25;;
57085;SDS011;42964;42.910;23.792;2023-12-07T00:05:36;93.28;;;41.17;;
57085;SDS011;42964;42.910;23.792;2023-12-07T00:10:35;85.28;;;37.38;;
57085;SDS011;42964;42.910;23.792;2023-12-07T00:15:34;92.18;;;42.17;;
57085;SDS011;42964;42.910;23.792;2023-12-07T00:20:33;100.80;;;41.53;;
57085;SDS011;42964;42.910;23.792;2023-12-07T00:25:32;106.20;;;43.15;;
57085;SDS011;42964;42.910;23.792;2023-12-07T00:30:31;97.30;;;38.35;;
57085;SDS011;42964;42.910;23.792;2023-12-07T00:35:30;100.78;;;39.08;;
57085;SDS011;42964;42.910;23.792;2023-12-07T00:40:29;134.07;;;41.38;;
57085;SDS011;42964;42.910;23.792;2023-12-07T00:45:28;135.10;;;43.42;;
57085;SDS011;42964;42.910;23.792;2023-12-07T00:50:27;128.95;;;40.38;;
57085;SDS011;42964;42.910;23.792;2023-12-07T00:55:26;121.63;;;37.08;;
57085;SDS011;42964;42.910;23.792;2023-12-07T01:00:25;155.00;;;41.38;;
57085;SDS011;42964;42.910;23.792;2023-12-07T01:05:24;100.43;;;35.13;;
57085;SDS011;42964;42.910;23.792;2023-12-07T01:10:23;106.10;;;34.70;;
57085;SDS011;42964;42.910;23.792;2023-12-07T01:15:22;88.82;;;37.30;;
57085;SDS011;42964;42.910;23.792;2023-12-07T01:20:21;77.65;;;36.10;;
57085;SDS011;42964;42.910;23.792;2023-12-07T01:25:20;89.57;;;36.78;;
57085;SDS011;42964;42.910;23.792;2023-12-07T01:30:20;109.63;;;39.95;;
57085;SDS011;42964;42.910;23.792;2023-12-07T01:35:19;87.30;;;37.97;;
57085;SDS011;42964;42.910;23.792;2023-12-07T01:40:19;83.35;;;36.88;;
57085;SDS011;42964;42.910;23.792;2023-12-07T01:45:19;93.03;;;37.83;;
57085;SDS011;42964;42.910;23.792;2023-12-07T01:50:19;97.40;;;41.22;;
57085;SDS011;42964;42.910;23.792;2023-12-07T01:55:22;110.13;;;42.35;;
57085;SDS011;42964;42.910;23.792;2023-12-07T02:00:23;118.50;;;45.97;;
57085;SDS011;42964;42.910;23.792;2023-12-07T02:05:22;112.80;;;42.72;;
57085;SDS011;42964;42.910;23.792;2023-12-07T02:10:23;80.18;;;37.35;;
57085;SDS011;42964;42.910;23.792;2023-12-07T02:15:22;86.32;;;39.25;;
57085;SDS011;42964;42.910;23.792;2023-12-07T02:25:52;91.00;;;41.05;;
57085;SDS011;42964;42.910;23.792;2023-12-07T02:30:53;106.43;;;44.63;;
57085;SDS011;42964;42.910;23.792;2023-12-07T02:35:51;104.95;;;44.25;;
57085;SDS011;42964;42.910;23.792;2023-12-07T02:40:50;103.90;;;43.25;;
57085;SDS011;42964;42.910;23.792;2023-12-07T02:45:52;97.18;;;42.15;;
57085;SDS011;42964;42.910;23.792;2023-12-07T02:55:50;85.47;;;41.45;;
57085;SDS011;42964;42.910;23.792;2023-12-07T03:00:49;84.32;;;39.47;;
57085;SDS011;42964;42.910;23.792;2023-12-07T03:10:47;94.22;;;41.50;;
57085;SDS011;42964;42.910;23.792;2023-12-07T03:15:46;73.35;;;37.92;;
57085;SDS011;42964;42.910;23.792;2023-12-07T03:20:45;69.07;;;32.97;;
57085;SDS011;42964;42.910;23.792;2023-12-07T03:25:44;68.85;;;32.92;;
57085;SDS011;42964;42.910;23.792;2023-12-07T03:30:43;65.57;;;31.85;;
57085;SDS011;42964;42.910;23.792;2023-12-07T03:35:41;62.70;;;31.23;;
57085;SDS011;42964;42.910;23.792;2023-12-07T03:40:40;56.28;;;31.15;;
57085;SDS011;42964;42.910;23.792;2023-12-07T03:45:39;60.65;;;31.33;;
57085;SDS011;42964;42.910;23.792;2023-12-07T03:50:38;59.28;;;29.15;;
57085;SDS011;42964;42.910;23.792;2023-12-07T03:55:37;54.15;;;29.73;;
57085;SDS011;42964;42.910;23.792;2023-12-07T04:00:37;62.67;;;32.53;;
57085;SDS011;42964;42.910;23.792;2023-12-07T04:05:36;57.90;;;31.38;;
57085;SDS011;42964;42.910;23.792;2023-12-07T04:10:36;64.10;;;32.97;;
57085;SDS011;42964;42.910;23.792;2023-12-07T04:15:35;60.95;;;30.65;;
57085;SDS011;42964;42.910;23.792;2023-12-07T04:20:34;64.63;;;31.27;;
57085;SDS011;42964;42.910;23.792;2023-12-07T04:25:33;66.95;;;33.55;;
57085;SDS011;42964;42.910;23.792;2023-12-07T04:30:32;67.40;;;30.58;;
57085;SDS011;42964;42.910;23.792;2023-12-07T04:40:30;65.97;;;34.00;;
57085;SDS011;42964;42.910;23.792;2023-12-07T04:45:29;56.75;;;29.90;;
57085;SDS011;42964;42.910;23.792;2023-12-07T04:50:28;109.05;;;60.53;;
57085;SDS011;42964;42.910;23.792;2023-12-07T04:55:27;69.20;;;35.78;;
57085;SDS011;42964;42.910;23.792;2023-12-07T05:00:26;72.07;;;35.67;;
57085;SDS011;42964;42.910;23.792;2023-12-07T05:05:26;74.35;;;36.63;;
57085;SDS011;42964;42.910;23.792;2023-12-07T05:10:24;60.20;;;31.75;;
57085;SDS011;42964;42.910;23.792;2023-12-07T05:15:24;77.57;;;45.63;;
57085;SDS011;42964;42.910;23.792;2023-12-07T05:25:22;84.97;;;52.57;;
57085;SDS011;42964;42.910;23.792;2023-12-07T05:30:21;49.25;;;26.60;;
57085;SDS011;42964;42.910;23.792;2023-12-07T05:35:20;46.13;;;24.08;;
57085;SDS011;42964;42.910;23.792;2023-12-07T05:40:19;47.42;;;24.45;;
57085;SDS011;42964;42.910;23.792;2023-12-07T05:45:18;40.63;;;21.17;;
57085;SDS011;42964;42.910;23.792;2023-12-07T05:55:16;45.97;;;22.40;;
57085;SDS011;42964;42.910;23.792;2023-12-07T06:00:15;40.67;;;21.83;;
57085;SDS011;42964;42.910;23.792;2023-12-07T06:10:13;45.95;;;24.75;;
57085;SDS011;42964;42.910;23.792;2023-12-07T06:15:12;54.60;;;29.13;;
57085;SDS011;42964;42.910;23.792;2023-12-07T06:20:11;37.13;;;19.95;;
57085;SDS011;42964;42.910;23.792;2023-12-07T06:25:10;35.58;;;19.30;;
57085;SDS011;42964;42.910;23.792;2023-12-07T06:30:10;38.38;;;20.95;;
57085;SDS011;42964;42.910;23.792;2023-12-07T06:40:11;37.40;;;19.92;;
57085;SDS011;42964;42.910;23.792;2023-12-07T06:45:10;38.60;;;20.17;;
57085;SDS011;42964;42.910;23.792;2023-12-07T06:50:12;45.83;;;24.17;;
57085;SDS011;42964;42.910;23.792;2023-12-07T06:55:11;49.38;;;24.92;;
57085;SDS011;42964;42.910;23.792;2023-12-07T07:00:10;51.85;;;26.35;;
57085;SDS011;42964;42.910;23.792;2023-12-07T07:05:10;44.92;;;22.45;;
57085;SDS011;42964;42.910;23.792;2023-12-07T07:10:10;46.35;;;21.23;;
57085;SDS011;42964;42.910;23.792;2023-12-07T07:15:10;46.95;;;24.25;;
57085;SDS011;42964;42.910;23.792;2023-12-07T07:20:09;75.03;;;39.40;;
57085;SDS011;42964;42.910;23.792;2023-12-07T07:30:07;76.65;;;39.47;;
57085;SDS011;42964;42.910;23.792;2023-12-07T07:40:06;60.53;;;30.63;;
57085;SDS011;42964;42.910;23.792;2023-12-07T07:50:05;65.43;;;34.20;;
57085;SDS011;42964;42.910;23.792;2023-12-07T07:55:05;67.13;;;32.80;;
57085;SDS011;42964;42.910;23.792;2023-12-07T08:00:04;73.40;;;34.00;;
57085;SDS011;42964;42.910;23.792;2023-12-07T08:05:04;63.17;;;33.67;;
57085;SDS011;42964;42.910;23.792;2023-12-07T08:15:02;65.40;;;33.17;;
57085;SDS011;42964;42.910;23.792;2023-12-07T08:20:01;69.78;;;32.70;;
57085;SDS011;42964;42.910;23.792;2023-12-07T08:25:00;70.68;;;33.00;;
57085;SDS011;42964;42.910;23.792;2023-12-07T08:29:59;59.97;;;29.98;;
57085;SDS011;42964;42.910;23.792;2023-12-07T08:34:58;123.97;;;58.13;;
57085;SDS011;42964;42.910;23.792;2023-12-07T08:39:57;61.67;;;28.75;;
57085;SDS011;42964;42.910;23.792;2023-12-07T08:44:56;68.28;;;30.25;;
57085;SDS011;42964;42.910;23.792;2023-12-07T08:49:55;59.35;;;26.60;;
57085;SDS011;42964;42.910;23.792;2023-12-07T08:54:54;62.22;;;28.83;;
57085;SDS011;42964;42.910;23.792;2023-12-07T08:59:53;41.92;;;21.45;;
57085;SDS011;42964;42.910;23.792;2023-12-07T09:04:53;41.90;;;21.15;;
57085;SDS011;42964;42.910;23.792;2023-12-07T09:09:52;36.33;;;19.52;;
57085;SDS011;42964;42.910;23.792;2023-12-07T09:14:51;37.60;;;19.92;;
57085;SDS011;42964;42.910;23.792;2023-12-07T09:19:50;35.05;;;17.70;;
57085;SDS011;42964;42.910;23.792;2023-12-07T09:24:49;33.38;;;18.05;;
57085;SDS011;42964;42.910;23.792;2023-12-07T09:29:48;44.13;;;21.88;;
57085;SDS011;42964;42.910;23.792;2023-12-07T09:34:47;31.23;;;16.80;;
57085;SDS011;42964;42.910;23.792;2023-12-07T09:39:46;40.58;;;23.75;;
57085;SDS011;42964;42.910;23.792;2023-12-07T09:44:45;39.28;;;21.00;;
57085;SDS011;42964;42.910;23.792;2023-12-07T09:49:44;35.45;;;18.30;;
57085;SDS011;42964;42.910;23.792;2023-12-07T09:59:42;27.33;;;15.38;;
57085;SDS011;42964;42.910;23.792;2023-12-07T10:04:41;38.83;;;19.20;;
57085;SDS011;42964;42.910;23.792;2023-12-07T10:09:40;27.85;;;15.35;;
57085;SDS011;42964;42.910;23.792;2023-12-07T10:14:39;28.92;;;15.55;;
57085;SDS011;42964;42.910;23.792;2023-12-07T10:19:38;24.75;;;12.75;;
57085;SDS011;42964;42.910;23.792;2023-12-07T10:24:37;24.63;;;13.32;;
57085;SDS011;42964;42.910;23.792;2023-12-07T10:29:37;24.33;;;13.80;;
57085;SDS011;42964;42.910;23.792;2023-12-07T10:34:36;27.10;;;13.68;;
57085;SDS011;42964;42.910;23.792;2023-12-07T10:39:35;24.23;;;13.85;;
57085;SDS011;42964;42.910;23.792;2023-12-07T10:44:35;31.85;;;16.90;;
57085;SDS011;42964;42.910;23.792;2023-12-07T10:49:40;27.92;;;17.30;;
57085;SDS011;42964;42.910;23.792;2023-12-07T10:59:55;35.13;;;18.77;;
57085;SDS011;42964;42.910;23.792;2023-12-07T11:04:56;40.22;;;24.23;;
57085;SDS011;42964;42.910;23.792;2023-12-07T11:10:00;26.42;;;14.73;;
57085;SDS011;42964;42.910;23.792;2023-12-07T11:15:04;26.80;;;16.38;;
57085;SDS011;42964;42.910;23.792;2023-12-07T11:20:04;26.45;;;15.55;;
57085;SDS011;42964;42.910;23.792;2023-12-07T11:25:04;35.72;;;22.23;;
57085;SDS011;42964;42.910;23.792;2023-12-07T11:30:03;34.17;;;22.52;;
57085;SDS011;42964;42.910;23.792;2023-12-07T11:35:03;29.67;;;19.42;;
57085;SDS011;42964;42.910;23.792;2023-12-07T11:40:03;35.35;;;24.60;;
57085;SDS011;42964;42.910;23.792;2023-12-07T11:45:03;41.80;;;25.42;;
57085;SDS011;42964;42.910;23.792;2023-12-07T11:50:03;29.70;;;20.10;;
57085;SDS011;42964;42.910;23.792;2023-12-07T11:55:02;42.88;;;28.83;;
57085;SDS011;42964;42.910;23.792;2023-12-07T12:00:01;52.65;;;31.83;;
57085;SDS011;42964;42.910;23.792;2023-12-07T12:05:03;35.22;;;22.58;;
57085;SDS011;42964;42.910;23.792;2023-12-07T12:10:02;24.15;;;15.40;;
57085;SDS011;42964;42.910;23.792;2023-12-07T12:15:02;40.83;;;26.63;;
57085;SDS011;42964;42.910;23.792;2023-12-07T12:20:02;22.73;;;13.73;;
57085;SDS011;42964;42.910;23.792;2023-12-07T12:25:02;20.27;;;14.05;;
57085;SDS011;42964;42.910;23.792;2023-12-07T12:30:03;18.58;;;13.40;;
57085;SDS011;42964;42.910;23.792;2023-12-07T12:35:03;18.60;;;10.55;;
57085;SDS011;42964;42.910;23.792;2023-12-07T12:45:05;18.73;;;12.13;;
57085;SDS011;42964;42.910;23.792;2023-12-07T12:50:06;19.58;;;12.60;;
57085;SDS011;42964;42.910;23.792;2023-12-07T12:55:07;18.05;;;12.65;;
57085;SDS011;42964;42.910;23.792;2023-12-07T13:00:09;28.73;;;19.02;;
57085;SDS011;42964;42.910;23.792;2023-12-07T13:05:08;23.65;;;16.92;;
57085;SDS011;42964;42.910;23.792;2023-12-07T13:10:07;20.83;;;14.32;;
57085;SDS011;42964;42.910;23.792;2023-12-07T13:15:07;13.48;;;8.07;;
57085;SDS011;42964;42.910;23.792;2023-12-07T13:20:07;21.05;;;14.25;;
57085;SDS011;42964;42.910;23.792;2023-12-07T13:25:10;27.02;;;18.02;;
57085;SDS011;42964;42.910;23.792;2023-12-07T13:30:10;30.58;;;20.17;;
57085;SDS011;42964;42.910;23.792;2023-12-07T13:35:10;27.13;;;17.83;;
57085;SDS011;42964;42.910;23.792;2023-12-07T13:40:10;26.38;;;16.27;;
57085;SDS011;42964;42.910;23.792;2023-12-07T13:45:10;21.77;;;14.57;;
57085;SDS011;42964;42.910;23.792;2023-12-07T14:00:09;9.68;;;6.70;;
57085;SDS011;42964;42.910;23.792;2023-12-07T14:05:11;9.68;;;6.50;;
57085;SDS011;42964;42.910;23.792;2023-12-07T14:10:10;16.63;;;11.55;;
57085;SDS011;42964;42.910;23.792;2023-12-07T14:15:10;15.65;;;10.13;;
57085;SDS011;42964;42.910;23.792;2023-12-07T14:25:09;32.00;;;21.83;;
57085;SDS011;42964;42.910;23.792;2023-12-07T14:30:09;12.45;;;8.35;;
57085;SDS011;42964;42.910;23.792;2023-12-07T14:35:09;10.40;;;8.27;;
57085;SDS011;42964;42.910;23.792;2023-12-07T14:40:08;10.32;;;7.97;;
57085;SDS011;42964;42.910;23.792;2023-12-07T14:50:06;18.42;;;12.90;;
57085;SDS011;42964;42.910;23.792;2023-12-07T14:55:05;22.20;;;13.60;;
57085;SDS011;42964;42.910;23.792;2023-12-07T15:00:05;24.00;;;15.38;;
57085;SDS011;42964;42.910;23.792;2023-12-07T15:05:04;20.33;;;12.88;;
57085;SDS011;42964;42.910;23.792;2023-12-07T15:10:04;19.20;;;14.65;;
57085;SDS011;42964;42.910;23.792;2023-12-07T15:15:04;11.75;;;7.65;;
57085;SDS011;42964;42.910;23.792;2023-12-07T15:20:04;13.85;;;9.10;;
57085;SDS011;42964;42.910;23.792;2023-12-07T15:25:03;13.88;;;9.43;;
57085;SDS011;42964;42.910;23.792;2023-12-07T15:30:04;10.10;;;7.47;;
57085;SDS011;42964;42.910;23.792;2023-12-07T15:35:06;10.73;;;7.40;;
57085;SDS011;42964;42.910;23.792;2023-12-07T15:40:05;9.45;;;6.97;;
57085;SDS011;42964;42.910;23.792;2023-12-07T15:45:08;11.63;;;7.07;;
57085;SDS011;42964;42.910;23.792;2023-12-07T15:50:08;10.27;;;8.23;;
57085;SDS011;42964;42.910;23.792;2023-12-07T15:55:09;15.90;;;10.93;;
57085;SDS011;42964;42.910;23.792;2023-12-07T16:00:08;22.17;;;17.23;;
57085;SDS011;42964;42.910;23.792;2023-12-07T16:05:09;37.35;;;22.27;;
57085;SDS011;42964;42.910;23.792;2023-12-07T16:10:08;19.77;;;12.98;;
57085;SDS011;42964;42.910;23.792;2023-12-07T16:15:07;15.50;;;10.95;;
57085;SDS011;42964;42.910;23.792;2023-12-07T16:20:06;12.10;;;8.50;;
57085;SDS011;42964;42.910;23.792;2023-12-07T16:25:09;10.55;;;6.20;;
57085;SDS011;42964;42.910;23.792;2023-12-07T16:30:08;6.22;;;4.65;;
57085;SDS011;42964;42.910;23.792;2023-12-07T16:35:11;6.35;;;5.05;;
57085;SDS011;42964;42.910;23.792;2023-12-07T16:40:11;12.93;;;9.40;;
57085;SDS011;42964;42.910;23.792;2023-12-07T16:45:10;10.50;;;7.80;;
57085;SDS011;42964;42.910;23.792;2023-12-07T16:50:10;14.65;;;10.07;;
57085;SDS011;42964;42.910;23.792;2023-12-07T16:55:09;12.50;;;9.52;;
57085;SDS011;42964;42.910;23.792;2023-12-07T17:00:09;16.92;;;12.20;;
57085;SDS011;42964;42.910;23.792;2023-12-07T17:05:09;17.33;;;11.90;;
57085;SDS011;42964;42.910;23.792;2023-12-07T17:10:08;26.25;;;16.58;;
57085;SDS011;42964;42.910;23.792;2023-12-07T17:15:07;16.73;;;12.05;;
57085;SDS011;42964;42.910;23.792;2023-12-07T17:20:07;15.90;;;10.77;;
57085;SDS011;42964;42.910;23.792;2023-12-07T17:25:06;12.68;;;7.78;;
57085;SDS011;42964;42.910;23.792;2023-12-07T17:30:06;12.70;;;8.88;;
57085;SDS011;42964;42.910;23.792;2023-12-07T17:40:04;24.48;;;15.30;;
57085;SDS011;42964;42.910;23.792;2023-12-07T17:45:04;18.75;;;13.77;;
57085;SDS011;42964;42.910;23.792;2023-12-07T17:50:05;18.15;;;11.48;;
57085;SDS011;42964;42.910;23.792;2023-12-07T17:55:04;14.77;;;10.93;;
57085;SDS011;42964;42.910;23.792;2023-12-07T18:00:04;18.95;;;13.23;;
57085;SDS011;42964;42.910;23.792;2023-12-07T18:05:04;16.25;;;10.40;;
57085;SDS011;42964;42.910;23.792;2023-12-07T18:10:05;14.63;;;10.27;;
57085;SDS011;42964;42.910;23.792;2023-12-07T18:20:04;52.67;;;29.63;;
57085;SDS011;42964;42.910;23.792;2023-12-07T18:25:04;37.47;;;22.70;;
57085;SDS011;42964;42.910;23.792;2023-12-07T18:30:05;34.65;;;22.88;;
57085;SDS011;42964;42.910;23.792;2023-12-07T18:35:05;24.27;;;15.32;;
57085;SDS011;42964;42.910;23.792;2023-12-07T18:40:04;30.48;;;19.23;;
57085;SDS011;42964;42.910;23.792;2023-12-07T18:45:04;20.13;;;14.52;;
57085;SDS011;42964;42.910;23.792;2023-12-07T18:50:03;23.13;;;16.58;;
57085;SDS011;42964;42.910;23.792;2023-12-07T18:55:03;20.15;;;14.57;;
57085;SDS011;42964;42.910;23.792;2023-12-07T19:00:02;29.17;;;19.80;;
57085;SDS011;42964;42.910;23.792;2023-12-07T19:10:00;14.73;;;10.57;;
57085;SDS011;42964;42.910;23.792;2023-12-07T19:14:59;19.65;;;13.40;;
57085;SDS011;42964;42.910;23.792;2023-12-07T19:19:59;16.45;;;11.52;;
57085;SDS011;42964;42.910;23.792;2023-12-07T19:24:58;12.80;;;9.45;;
57085;SDS011;42964;42.910;23.792;2023-12-07T19:29:59;22.77;;;15.88;;
57085;SDS011;42964;42.910;23.792;2023-12-07T19:34:58;15.05;;;10.85;;
57085;SDS011;42964;42.910;23.792;2023-12-07T19:39:57;31.73;;;17.90;;
57085;SDS011;42964;42.910;23.792;2023-12-07T19:49:55;19.48;;;14.18;;
57085;SDS011;42964;42.910;23.792;2023-12-07T19:54:54;18.75;;;12.35;;
57085;SDS011;42964;42.910;23.792;2023-12-07T19:59:53;21.95;;;16.15;;
57085;SDS011;42964;42.910;23.792;2023-12-07T20:04:52;19.25;;;14.48;;
57085;SDS011;42964;42.910;23.792;2023-12-07T20:09:51;13.75;;;9.98;;
57085;SDS011;42964;42.910;23.792;2023-12-07T20:14:52;40.47;;;26.42;;
57085;SDS011;42964;42.910;23.792;2023-12-07T20:19:51;37.47;;;24.23;;
57085;SDS011;42964;42.910;23.792;2023-12-07T20:24:50;17.15;;;12.50;;
57085;SDS011;42964;42.910;23.792;2023-12-07T20:29:48;25.45;;;17.77;;
57085;SDS011;42964;42.910;23.792;2023-12-07T20:34:47;23.08;;;16.20;;
57085;SDS011;42964;42.910;23.792;2023-12-07T20:39:48;27.63;;;19.58;;
57085;SDS011;42964;42.910;23.792;2023-12-07T20:44:46;25.92;;;18.15;;
57085;SDS011;42964;42.910;23.792;2023-12-07T20:49:45;24.75;;;17.20;;
57085;SDS011;42964;42.910;23.792;2023-12-07T20:54:44;15.65;;;11.77;;
57085;SDS011;42964;42.910;23.792;2023-12-07T20:59:43;22.00;;;14.52;;
57085;SDS011;42964;42.910;23.792;2023-12-07T21:04:43;24.90;;;16.30;;
57085;SDS011;42964;42.910;23.792;2023-12-07T21:09:41;23.30;;;15.73;;
57085;SDS011;42964;42.910;23.792;2023-12-07T21:19:40;21.85;;;14.55;;
57085;SDS011;42964;42.910;23.792;2023-12-07T21:29:38;19.90;;;12.98;;
57085;SDS011;42964;42.910;23.792;2023-12-07T21:34:38;23.10;;;15.45;;
57085;SDS011;42964;42.910;23.792;2023-12-07T21:39:41;24.13;;;14.63;;
57085;SDS011;42964;42.910;23.792;2023-12-07T21:44:41;17.48;;;12.43;;
57085;SDS011;42964;42.910;23.792;2023-12-07T21:49:40;17.27;;;11.02;;
57085;SDS011;42964;42.910;23.792;2023-12-07T21:54:39;27.98;;;18.05;;
57085;SDS011;42964;42.910;23.792;2023-12-07T21:59:38;23.65;;;16.33;;
57085;SDS011;42964;42.910;23.792;2023-12-07T22:04:37;26.77;;;18.30;;
57085;SDS011;42964;42.910;23.792;2023-12-07T22:09:36;40.28;;;24.02;;
57085;SDS011;42964;42.910;23.792;2023-12-07T22:14:36;55.53;;;34.38;;
57085;SDS011;42964;42.910;23.792;2023-12-07T22:19:38;25.15;;;17.73;;
57085;SDS011;42964;42.910;23.792;2023-12-07T22:24:37;15.07;;;8.90;;
57085;SDS011;42964;42.910;23.792;2023-12-07T22:29:36;29.65;;;15.90;;
57085;SDS011;42964;42.910;23.792;2023-12-07T22:34:35;79.65;;;39.28;;
57085;SDS011;42964;42.910;23.792;2023-12-07T22:39:34;44.90;;;25.15;;
57085;SDS011;42964;42.910;23.792;2023-12-07T22:44:36;41.78;;;22.55;;
57085;SDS011;42964;42.910;23.792;2023-12-07T22:49:35;60.85;;;31.42;;
57085;SDS011;42964;42.910;23.792;2023-12-07T22:54:34;28.27;;;17.55;;
57085;SDS011;42964;42.910;23.792;2023-12-07T23:04:32;28.98;;;18.55;;
57085;SDS011;42964;42.910;23.792;2023-12-07T23:09:31;34.30;;;20.63;;
57085;SDS011;42964;42.910;23.792;2023-12-07T23:14:30;38.67;;;22.73;;
57085;SDS011;42964;42.910;23.792;2023-12-07T23:19:29;41.45;;;22.85;;
57085;SDS011;42964;42.910;23.792;2023-12-07T23:24:28;26.02;;;15.75;;
57085;SDS011;42964;42.910;23.792;2023-12-07T23:29:27;60.85;;;31.10;;
57085;SDS011;42964;42.910;23.792;2023-12-07T23:34:26;33.20;;;20.17;;
57085;SDS011;42964;42.910;23.792;2023-12-07T23:39:25;22.17;;;15.07;;
57085;SDS011;42964;42.910;23.792;2023-12-07T23:44:24;25.20;;;16.77;;
57085;SDS011;42964;42.910;23.792;2023-12-07T23:49:22;22.92;;;13.65;;
57085;SDS011;42964;42.910;23.792;2023-12-07T23:54:21;26.35;;;15.98;;
57085;SDS011;42964;42.910;23.792;2023-12-07T23:59:20;21.52;;;14.30;;
